sensor_id;sensor_type;location;lat;lon;timestamp;P1;durP1;ratioP1;P2;durP2;ratioP2
7013;SDS011;3547;50.774;12.918;2023-06-04T00:01:21;2.07;;;1.63;;
7013;SDS011;3547;50.774;12.918;2023-06-04T00:03:47;1.60;;;1.50;;
7013;SDS011;3547;50.774;12.918;2023-06-04T00:06:14;1.47;;;1.37;;
7013;SDS011;3547;50.774;12.918;2023-06-04T00:08:50;1.77;;;1.23;;
7013;SDS011;3547;50.774;12.918;2023-06-04T00:11:22;1.93;;;1.30;;
7013;SDS011;3547;50.774;12.918;2023-06-04T00:13:49;1.30;;;1.13;;
7013;SDS011;3547;50.774;12.918;2023-06-04T00:16:15;1.30;;;1.20;;
7013;SDS011;3547;50.774;12.918;2023-06-04T00:18:41;2.43;;;1.60;;
7013;SDS011;3547;50.774;12.918;2023-06-04T00:21:07;2.83;;;1.60;;
7013;SDS011;3547;50.774;12.918;2023-06-04T00:23:33;1.37;;;1.27;;
7013;SDS011;3547;50.774;12.918;2023-06-04T00:25:59;3.23;;;1.40;;
7013;SDS011;3547;50.774;12.918;2023-06-04T00:28:26;2.23;;;1.37;;
7013;SDS011;3547;50.774;12.918;2023-06-04T00:30:52;2.67;;;1.50;;
7013;SDS011;3547;50.774;12.918;2023-06-04T00:33:18;1.43;;;1.30;;
7013;SDS011;3547;50.774;12.918;2023-06-04T00:35:44;1.40;;;1.27;;
7013;SDS011;3547;50.774;12.918;2023-06-04T00:38:10;1.70;;;1.40;;
7013;SDS011;3547;50.774;12.918;2023-06-04T00:40:36;2.07;;;1.60;;
7013;SDS011;3547;50.774;12.918;2023-06-04T00:43:02;1.70;;;1.60;;
7013;SDS011;3547;50.774;12.918;2023-06-04T00:45:29;6.13;;;1.50;;
7013;SDS011;3547;50.774;12.918;2023-06-04T00:47:56;1.87;;;1.40;;
7013;SDS011;3547;50.774;12.918;2023-06-04T00:50:23;1.37;;;1.10;;
7013;SDS011;3547;50.774;12.918;2023-06-04T00:52:50;2.77;;;1.70;;
7013;SDS011;3547;50.774;12.918;2023-06-04T00:55:17;2.40;;;1.40;;
7013;SDS011;3547;50.774;12.918;2023-06-04T00:57:46;2.37;;;1.20;;
7013;SDS011;3547;50.774;12.918;2023-06-04T01:00:12;1.60;;;1.30;;
7013;SDS011;3547;50.774;12.918;2023-06-04T01:02:39;3.20;;;1.60;;
7013;SDS011;3547;50.774;12.918;2023-06-04T01:05:20;1.57;;;1.20;;
7013;SDS011;3547;50.774;12.918;2023-06-04T01:08:03;1.77;;;1.43;;
7013;SDS011;3547;50.774;12.918;2023-06-04T01:10:34;2.13;;;1.50;;
7013;SDS011;3547;50.774;12.918;2023-06-04T01:13:01;1.20;;;1.10;;
7013;SDS011;3547;50.774;12.918;2023-06-04T01:15:27;2.60;;;1.40;;
7013;SDS011;3547;50.774;12.918;2023-06-04T01:17:54;1.87;;;1.60;;
7013;SDS011;3547;50.774;12.918;2023-06-04T01:30:52;1.60;;;1.50;;
7013;SDS011;3547;50.774;12.918;2023-06-04T01:33:19;2.53;;;1.90;;
7013;SDS011;3547;50.774;12.918;2023-06-04T01:35:46;1.77;;;1.67;;
7013;SDS011;3547;50.774;12.918;2023-06-04T01:38:12;1.77;;;1.13;;
7013;SDS011;3547;50.774;12.918;2023-06-04T01:40:39;3.10;;;1.40;;
7013;SDS011;3547;50.774;12.918;2023-06-04T01:43:06;2.07;;;1.60;;
7013;SDS011;3547;50.774;12.918;2023-06-04T01:45:32;1.30;;;1.20;;
7013;SDS011;3547;50.774;12.918;2023-06-04T01:48:00;2.07;;;1.53;;
7013;SDS011;3547;50.774;12.918;2023-06-04T01:53:27;3.73;;;1.53;;
7013;SDS011;3547;50.774;12.918;2023-06-04T01:55:53;1.80;;;1.00;;
7013;SDS011;3547;50.774;12.918;2023-06-04T01:58:28;3.63;;;1.47;;
7013;SDS011;3547;50.774;12.918;2023-06-04T02:00:57;2.10;;;1.60;;
7013;SDS011;3547;50.774;12.918;2023-06-04T02:03:26;1.70;;;1.30;;
7013;SDS011;3547;50.774;12.918;2023-06-04T02:05:53;4.03;;;1.80;;
7013;SDS011;3547;50.774;12.918;2023-06-04T02:08:19;1.40;;;1.17;;
7013;SDS011;3547;50.774;12.918;2023-06-04T02:10:49;1.57;;;1.40;;
7013;SDS011;3547;50.774;12.918;2023-06-04T02:14:10;2.90;;;1.30;;
7013;SDS011;3547;50.774;12.918;2023-06-04T02:16:36;4.53;;;1.33;;
7013;SDS011;3547;50.774;12.918;2023-06-04T02:19:06;1.70;;;1.33;;
7013;SDS011;3547;50.774;12.918;2023-06-04T02:22:11;1.83;;;1.63;;
7013;SDS011;3547;50.774;12.918;2023-06-04T02:24:38;2.07;;;1.47;;
7013;SDS011;3547;50.774;12.918;2023-06-04T02:27:05;2.03;;;1.40;;
7013;SDS011;3547;50.774;12.918;2023-06-04T02:29:31;2.13;;;1.37;;
7013;SDS011;3547;50.774;12.918;2023-06-04T02:31:58;1.80;;;1.30;;
7013;SDS011;3547;50.774;12.918;2023-06-04T02:34:24;1.53;;;1.30;;
7013;SDS011;3547;50.774;12.918;2023-06-04T02:36:50;3.40;;;1.90;;
7013;SDS011;3547;50.774;12.918;2023-06-04T02:39:25;1.90;;;1.70;;
7013;SDS011;3547;50.774;12.918;2023-06-04T02:41:51;1.60;;;1.33;;
7013;SDS011;3547;50.774;12.918;2023-06-04T02:44:17;1.93;;;1.23;;
7013;SDS011;3547;50.774;12.918;2023-06-04T02:46:44;1.40;;;1.30;;
7013;SDS011;3547;50.774;12.918;2023-06-04T02:52:32;1.90;;;1.57;;
7013;SDS011;3547;50.774;12.918;2023-06-04T02:54:58;1.60;;;1.30;;
7013;SDS011;3547;50.774;12.918;2023-06-04T02:57:24;1.97;;;1.50;;
7013;SDS011;3547;50.774;12.918;2023-06-04T02:59:51;1.40;;;1.17;;
7013;SDS011;3547;50.774;12.918;2023-06-04T03:02:18;1.77;;;1.50;;
7013;SDS011;3547;50.774;12.918;2023-06-04T03:04:44;2.13;;;1.27;;
7013;SDS011;3547;50.774;12.918;2023-06-04T03:07:23;2.83;;;1.47;;
7013;SDS011;3547;50.774;12.918;2023-06-04T03:09:50;2.40;;;1.53;;
7013;SDS011;3547;50.774;12.918;2023-06-04T03:12:16;1.33;;;1.23;;
7013;SDS011;3547;50.774;12.918;2023-06-04T03:14:42;4.63;;;1.17;;
7013;SDS011;3547;50.774;12.918;2023-06-04T03:17:09;1.77;;;1.67;;
7013;SDS011;3547;50.774;12.918;2023-06-04T03:19:39;2.30;;;1.97;;
7013;SDS011;3547;50.774;12.918;2023-06-04T03:22:06;1.67;;;1.53;;
7013;SDS011;3547;50.774;12.918;2023-06-04T03:24:43;1.30;;;1.20;;
7013;SDS011;3547;50.774;12.918;2023-06-04T03:27:09;1.67;;;1.43;;
7013;SDS011;3547;50.774;12.918;2023-06-04T03:29:36;3.23;;;1.30;;
7013;SDS011;3547;50.774;12.918;2023-06-04T03:32:03;1.63;;;1.07;;
7013;SDS011;3547;50.774;12.918;2023-06-04T03:34:29;2.83;;;1.50;;
7013;SDS011;3547;50.774;12.918;2023-06-04T03:36:58;1.93;;;1.43;;
7013;SDS011;3547;50.774;12.918;2023-06-04T03:39:25;2.00;;;1.70;;
7013;SDS011;3547;50.774;12.918;2023-06-04T03:41:51;2.30;;;1.50;;
7013;SDS011;3547;50.774;12.918;2023-06-04T03:44:19;2.70;;;1.80;;
7013;SDS011;3547;50.774;12.918;2023-06-04T03:46:58;2.03;;;1.43;;
7013;SDS011;3547;50.774;12.918;2023-06-04T03:49:24;1.93;;;1.50;;
7013;SDS011;3547;50.774;12.918;2023-06-04T03:51:50;2.03;;;1.30;;
7013;SDS011;3547;50.774;12.918;2023-06-04T03:54:22;2.07;;;1.30;;
7013;SDS011;3547;50.774;12.918;2023-06-04T03:56:52;1.67;;;1.30;;
7013;SDS011;3547;50.774;12.918;2023-06-04T03:59:24;1.40;;;1.30;;
7013;SDS011;3547;50.774;12.918;2023-06-04T04:01:50;2.03;;;1.43;;
7013;SDS011;3547;50.774;12.918;2023-06-04T04:07:39;1.63;;;1.20;;
7013;SDS011;3547;50.774;12.918;2023-06-04T04:10:06;1.77;;;1.67;;
7013;SDS011;3547;50.774;12.918;2023-06-04T04:12:32;2.80;;;1.57;;
7013;SDS011;3547;50.774;12.918;2023-06-04T04:15:02;1.90;;;1.70;;
7013;SDS011;3547;50.774;12.918;2023-06-04T04:17:32;1.50;;;1.40;;
7013;SDS011;3547;50.774;12.918;2023-06-04T04:19:58;4.20;;;2.00;;
7013;SDS011;3547;50.774;12.918;2023-06-04T04:22:27;1.80;;;1.20;;
7013;SDS011;3547;50.774;12.918;2023-06-04T04:24:53;2.00;;;1.33;;
7013;SDS011;3547;50.774;12.918;2023-06-04T04:27:19;1.97;;;1.60;;
7013;SDS011;3547;50.774;12.918;2023-06-04T04:29:45;2.60;;;1.30;;
7013;SDS011;3547;50.774;12.918;2023-06-04T04:32:13;2.00;;;1.33;;
7013;SDS011;3547;50.774;12.918;2023-06-04T04:34:51;1.60;;;1.40;;
7013;SDS011;3547;50.774;12.918;2023-06-04T04:37:23;1.70;;;1.60;;
7013;SDS011;3547;50.774;12.918;2023-06-04T04:39:49;2.03;;;1.60;;
7013;SDS011;3547;50.774;12.918;2023-06-04T04:42:18;2.87;;;1.70;;
7013;SDS011;3547;50.774;12.918;2023-06-04T04:44:45;1.77;;;1.53;;
7013;SDS011;3547;50.774;12.918;2023-06-04T04:47:14;1.80;;;1.60;;
7013;SDS011;3547;50.774;12.918;2023-06-04T04:49:41;1.50;;;1.40;;
7013;SDS011;3547;50.774;12.918;2023-06-04T04:52:08;2.17;;;1.50;;
7013;SDS011;3547;50.774;12.918;2023-06-04T04:54:37;2.10;;;1.77;;
7013;SDS011;3547;50.774;12.918;2023-06-04T04:57:07;1.90;;;1.57;;
7013;SDS011;3547;50.774;12.918;2023-06-04T04:59:42;1.77;;;1.43;;
7013;SDS011;3547;50.774;12.918;2023-06-04T05:02:08;2.40;;;1.77;;
7013;SDS011;3547;50.774;12.918;2023-06-04T05:04:37;2.63;;;1.90;;
7013;SDS011;3547;50.774;12.918;2023-06-04T05:07:03;2.87;;;1.70;;
7013;SDS011;3547;50.774;12.918;2023-06-04T05:09:36;2.10;;;1.67;;
7013;SDS011;3547;50.774;12.918;2023-06-04T05:12:02;1.97;;;1.70;;
7013;SDS011;3547;50.774;12.918;2023-06-04T05:14:28;1.83;;;1.00;;
7013;SDS011;3547;50.774;12.918;2023-06-04T05:16:55;2.37;;;1.20;;
7013;SDS011;3547;50.774;12.918;2023-06-04T05:19:24;1.83;;;1.17;;
7013;SDS011;3547;50.774;12.918;2023-06-04T05:21:53;1.10;;;1.00;;
7013;SDS011;3547;50.774;12.918;2023-06-04T05:24:19;2.27;;;1.30;;
7013;SDS011;3547;50.774;12.918;2023-06-04T05:26:46;1.63;;;1.30;;
7013;SDS011;3547;50.774;12.918;2023-06-04T05:29:13;1.30;;;1.20;;
7013;SDS011;3547;50.774;12.918;2023-06-04T05:31:39;4.90;;;1.40;;
7013;SDS011;3547;50.774;12.918;2023-06-04T05:34:06;3.37;;;1.47;;
7013;SDS011;3547;50.774;12.918;2023-06-04T05:36:32;2.10;;;1.33;;
7013;SDS011;3547;50.774;12.918;2023-06-04T05:38:58;1.40;;;1.23;;
7013;SDS011;3547;50.774;12.918;2023-06-04T05:41:26;4.50;;;1.50;;
7013;SDS011;3547;50.774;12.918;2023-06-04T05:43:56;1.97;;;1.23;;
7013;SDS011;3547;50.774;12.918;2023-06-04T05:46:22;1.83;;;1.20;;
7013;SDS011;3547;50.774;12.918;2023-06-04T05:48:51;1.70;;;1.30;;
7013;SDS011;3547;50.774;12.918;2023-06-04T05:51:17;1.27;;;1.17;;
7013;SDS011;3547;50.774;12.918;2023-06-04T05:53:43;2.20;;;1.43;;
7013;SDS011;3547;50.774;12.918;2023-06-04T05:58:56;1.20;;;1.10;;
7013;SDS011;3547;50.774;12.918;2023-06-04T06:01:25;4.13;;;1.30;;
7013;SDS011;3547;50.774;12.918;2023-06-04T06:03:52;0.70;;;0.70;;
7013;SDS011;3547;50.774;12.918;2023-06-04T06:06:21;1.13;;;0.90;;
7013;SDS011;3547;50.774;12.918;2023-06-04T06:08:47;1.67;;;0.93;;
7013;SDS011;3547;50.774;12.918;2023-06-04T06:11:14;2.00;;;1.20;;
7013;SDS011;3547;50.774;12.918;2023-06-04T06:13:42;1.20;;;1.10;;
7013;SDS011;3547;50.774;12.918;2023-06-04T06:16:11;0.90;;;0.70;;
7013;SDS011;3547;50.774;12.918;2023-06-04T06:18:39;2.47;;;0.90;;
7013;SDS011;3547;50.774;12.918;2023-06-04T06:21:05;0.80;;;0.80;;
7013;SDS011;3547;50.774;12.918;2023-06-04T06:23:31;1.30;;;0.93;;
7013;SDS011;3547;50.774;12.918;2023-06-04T06:25:57;0.90;;;0.77;;
7013;SDS011;3547;50.774;12.918;2023-06-04T06:28:26;2.67;;;1.07;;
7013;SDS011;3547;50.774;12.918;2023-06-04T06:30:53;1.80;;;1.00;;
7013;SDS011;3547;50.774;12.918;2023-06-04T06:33:19;1.27;;;0.90;;
7013;SDS011;3547;50.774;12.918;2023-06-04T06:35:53;2.00;;;1.03;;
7013;SDS011;3547;50.774;12.918;2023-06-04T06:38:20;0.63;;;0.63;;
7013;SDS011;3547;50.774;12.918;2023-06-04T06:40:54;1.37;;;1.00;;
7013;SDS011;3547;50.774;12.918;2023-06-04T06:43:20;1.47;;;1.00;;
7013;SDS011;3547;50.774;12.918;2023-06-04T06:45:47;1.13;;;0.90;;
7013;SDS011;3547;50.774;12.918;2023-06-04T06:48:23;0.73;;;0.70;;
7013;SDS011;3547;50.774;12.918;2023-06-04T06:50:53;1.87;;;1.10;;
7013;SDS011;3547;50.774;12.918;2023-06-04T06:53:20;1.77;;;0.90;;
7013;SDS011;3547;50.774;12.918;2023-06-04T07:01:40;2.60;;;0.90;;
7013;SDS011;3547;50.774;12.918;2023-06-04T07:04:07;2.47;;;1.37;;
7013;SDS011;3547;50.774;12.918;2023-06-04T07:06:34;1.50;;;0.90;;
7013;SDS011;3547;50.774;12.918;2023-06-04T07:09:02;1.43;;;0.90;;
7013;SDS011;3547;50.774;12.918;2023-06-04T07:11:31;0.83;;;0.83;;
7013;SDS011;3547;50.774;12.918;2023-06-04T07:13:57;1.17;;;1.00;;
7013;SDS011;3547;50.774;12.918;2023-06-04T07:19:54;0.77;;;0.70;;
7013;SDS011;3547;50.774;12.918;2023-06-04T07:22:21;2.37;;;0.80;;
7013;SDS011;3547;50.774;12.918;2023-06-04T07:24:48;1.37;;;1.03;;
7013;SDS011;3547;50.774;12.918;2023-06-04T07:30:09;1.00;;;0.90;;
7013;SDS011;3547;50.774;12.918;2023-06-04T07:32:48;1.37;;;1.00;;
7013;SDS011;3547;50.774;12.918;2023-06-04T07:35:20;1.40;;;0.90;;
7013;SDS011;3547;50.774;12.918;2023-06-04T07:41:09;1.63;;;1.05;;
7013;SDS011;3547;50.774;12.918;2023-06-04T07:43:36;1.15;;;1.02;;
7013;SDS011;3547;50.774;12.918;2023-06-04T07:46:02;2.17;;;1.02;;
7013;SDS011;3547;50.774;12.918;2023-06-04T07:48:30;0.80;;;0.77;;
7013;SDS011;3547;50.774;12.918;2023-06-04T07:51:02;1.77;;;0.80;;
7013;SDS011;3547;50.774;12.918;2023-06-04T07:53:32;0.88;;;0.70;;
7013;SDS011;3547;50.774;12.918;2023-06-04T07:55:58;0.85;;;0.80;;
7013;SDS011;3547;50.774;12.918;2023-06-04T07:58:27;0.80;;;0.80;;
7013;SDS011;3547;50.774;12.918;2023-06-04T08:00:54;2.40;;;0.90;;
7013;SDS011;3547;50.774;12.918;2023-06-04T08:03:21;1.02;;;0.90;;
7013;SDS011;3547;50.774;12.918;2023-06-04T08:05:48;0.70;;;0.70;;
7013;SDS011;3547;50.774;12.918;2023-06-04T08:08:15;1.50;;;1.02;;
7013;SDS011;3547;50.774;12.918;2023-06-04T08:10:41;1.63;;;1.02;;
7013;SDS011;3547;50.774;12.918;2023-06-04T08:13:11;0.77;;;0.77;;
7013;SDS011;3547;50.774;12.918;2023-06-04T08:15:41;2.42;;;1.25;;
7013;SDS011;3547;50.774;12.918;2023-06-04T08:18:13;0.68;;;0.68;;
7013;SDS011;3547;50.774;12.918;2023-06-04T08:20:39;0.90;;;0.88;;
7013;SDS011;3547;50.774;12.918;2023-06-04T08:23:05;1.10;;;0.82;;
7013;SDS011;3547;50.774;12.918;2023-06-04T08:25:32;1.23;;;1.00;;
7013;SDS011;3547;50.774;12.918;2023-06-04T08:27:58;2.35;;;0.80;;
7013;SDS011;3547;50.774;12.918;2023-06-04T08:30:25;1.00;;;0.90;;
7013;SDS011;3547;50.774;12.918;2023-06-04T08:32:53;1.10;;;0.70;;
7013;SDS011;3547;50.774;12.918;2023-06-04T08:35:19;1.25;;;1.02;;
7013;SDS011;3547;50.774;12.918;2023-06-04T08:37:45;1.30;;;1.00;;
7013;SDS011;3547;50.774;12.918;2023-06-04T08:40:11;1.00;;;0.95;;
7013;SDS011;3547;50.774;12.918;2023-06-04T08:42:39;0.80;;;0.75;;
7013;SDS011;3547;50.774;12.918;2023-06-04T08:45:10;1.33;;;1.10;;
7013;SDS011;3547;50.774;12.918;2023-06-04T08:47:48;1.30;;;1.20;;
7013;SDS011;3547;50.774;12.918;2023-06-04T08:50:16;1.13;;;0.80;;
7013;SDS011;3547;50.774;12.918;2023-06-04T08:52:44;1.55;;;1.30;;
7013;SDS011;3547;50.774;12.918;2023-06-04T08:55:11;0.80;;;0.80;;
7013;SDS011;3547;50.774;12.918;2023-06-04T08:57:39;1.90;;;0.88;;
7013;SDS011;3547;50.774;12.918;2023-06-04T09:00:06;1.10;;;1.00;;
7013;SDS011;3547;50.774;12.918;2023-06-04T09:02:37;1.02;;;0.93;;
7013;SDS011;3547;50.774;12.918;2023-06-04T09:05:03;3.58;;;1.38;;
7013;SDS011;3547;50.774;12.918;2023-06-04T09:07:33;2.30;;;0.98;;
7013;SDS011;3547;50.774;12.918;2023-06-04T09:10:02;1.08;;;0.85;;
7013;SDS011;3547;50.774;12.918;2023-06-04T09:12:30;0.52;;;0.52;;
7013;SDS011;3547;50.774;12.918;2023-06-04T09:14:59;1.42;;;1.05;;
7013;SDS011;3547;50.774;12.918;2023-06-04T09:17:25;0.85;;;0.68;;
7013;SDS011;3547;50.774;12.918;2023-06-04T09:19:53;1.00;;;0.90;;
7013;SDS011;3547;50.774;12.918;2023-06-04T09:22:19;1.25;;;0.82;;
7013;SDS011;3547;50.774;12.918;2023-06-04T09:24:58;1.17;;;1.08;;
7013;SDS011;3547;50.774;12.918;2023-06-04T09:27:47;0.80;;;0.80;;
7013;SDS011;3547;50.774;12.918;2023-06-04T09:30:15;1.42;;;1.20;;
7013;SDS011;3547;50.774;12.918;2023-06-04T09:32:41;1.30;;;0.95;;
7013;SDS011;3547;50.774;12.918;2023-06-04T09:35:16;1.30;;;1.17;;
7013;SDS011;3547;50.774;12.918;2023-06-04T09:37:55;1.67;;;1.00;;
7013;SDS011;3547;50.774;12.918;2023-06-04T09:48:18;0.98;;;0.75;;
7013;SDS011;3547;50.774;12.918;2023-06-04T09:50:46;3.85;;;1.10;;
7013;SDS011;3547;50.774;12.918;2023-06-04T09:53:17;0.80;;;0.80;;
7013;SDS011;3547;50.774;12.918;2023-06-04T09:55:56;1.25;;;0.90;;
7013;SDS011;3547;50.774;12.918;2023-06-04T09:58:27;0.82;;;0.80;;
7013;SDS011;3547;50.774;12.918;2023-06-04T10:00:54;1.10;;;1.00;;
7013;SDS011;3547;50.774;12.918;2023-06-04T10:03:25;1.38;;;1.00;;
7013;SDS011;3547;50.774;12.918;2023-06-04T10:05:59;1.83;;;1.25;;
7013;SDS011;3547;50.774;12.918;2023-06-04T10:08:29;0.80;;;0.80;;
7013;SDS011;3547;50.774;12.918;2023-06-04T10:10:56;1.48;;;1.05;;
7013;SDS011;3547;50.774;12.918;2023-06-04T10:13:31;3.03;;;0.90;;
7013;SDS011;3547;50.774;12.918;2023-06-04T10:16:06;1.40;;;1.15;;
7013;SDS011;3547;50.774;12.918;2023-06-04T10:18:33;1.35;;;0.90;;
7013;SDS011;3547;50.774;12.918;2023-06-04T10:21:00;1.13;;;1.02;;
7013;SDS011;3547;50.774;12.918;2023-06-04T10:23:27;1.63;;;1.00;;
7013;SDS011;3547;50.774;12.918;2023-06-04T10:25:54;2.42;;;0.82;;
7013;SDS011;3547;50.774;12.918;2023-06-04T10:28:22;1.17;;;1.05;;
7013;SDS011;3547;50.774;12.918;2023-06-04T10:30:49;0.95;;;0.90;;
7013;SDS011;3547;50.774;12.918;2023-06-04T10:33:19;2.25;;;1.23;;
7013;SDS011;3547;50.774;12.918;2023-06-04T10:35:50;2.70;;;1.00;;
7013;SDS011;3547;50.774;12.918;2023-06-04T10:38:18;0.90;;;0.85;;
7013;SDS011;3547;50.774;12.918;2023-06-04T10:40:46;2.05;;;0.95;;
7013;SDS011;3547;50.774;12.918;2023-06-04T10:43:14;1.05;;;0.90;;
7013;SDS011;3547;50.774;12.918;2023-06-04T10:45:44;0.93;;;0.90;;
7013;SDS011;3547;50.774;12.918;2023-06-04T10:48:11;5.32;;;1.00;;
7013;SDS011;3547;50.774;12.918;2023-06-04T10:50:50;1.00;;;0.90;;
7013;SDS011;3547;50.774;12.918;2023-06-04T10:53:17;3.38;;;1.15;;
7013;SDS011;3547;50.774;12.918;2023-06-04T10:55:48;1.35;;;1.05;;
7013;SDS011;3547;50.774;12.918;2023-06-04T10:58:15;1.50;;;0.93;;
7013;SDS011;3547;50.774;12.918;2023-06-04T11:00:43;1.00;;;1.00;;
7013;SDS011;3547;50.774;12.918;2023-06-04T11:03:15;2.60;;;1.00;;
7013;SDS011;3547;50.774;12.918;2023-06-04T11:05:45;1.20;;;1.10;;
7013;SDS011;3547;50.774;12.918;2023-06-04T11:08:13;2.30;;;1.13;;
7013;SDS011;3547;50.774;12.918;2023-06-04T11:10:41;2.80;;;1.33;;
7013;SDS011;3547;50.774;12.918;2023-06-04T11:13:08;5.45;;;1.67;;
7013;SDS011;3547;50.774;12.918;2023-06-04T11:15:38;6.65;;;1.23;;
7013;SDS011;3547;50.774;12.918;2023-06-04T11:18:05;2.10;;;1.23;;
7013;SDS011;3547;50.774;12.918;2023-06-04T11:20:31;1.63;;;1.00;;
7013;SDS011;3547;50.774;12.918;2023-06-04T11:22:58;1.02;;;0.82;;
7013;SDS011;3547;50.774;12.918;2023-06-04T11:25:29;1.45;;;1.23;;
7013;SDS011;3547;50.774;12.918;2023-06-04T11:27:58;2.58;;;1.20;;
7013;SDS011;3547;50.774;12.918;2023-06-04T11:30:27;1.08;;;0.90;;
7013;SDS011;3547;50.774;12.918;2023-06-04T11:33:00;0.70;;;0.70;;
7013;SDS011;3547;50.774;12.918;2023-06-04T11:35:30;1.77;;;1.17;;
7013;SDS011;3547;50.774;12.918;2023-06-04T11:38:15;1.88;;;1.17;;
7013;SDS011;3547;50.774;12.918;2023-06-04T11:40:41;1.67;;;1.10;;
7013;SDS011;3547;50.774;12.918;2023-06-04T11:43:10;1.52;;;1.27;;
7013;SDS011;3547;50.774;12.918;2023-06-04T11:45:36;0.88;;;0.88;;
7013;SDS011;3547;50.774;12.918;2023-06-04T11:48:05;1.02;;;0.93;;
7013;SDS011;3547;50.774;12.918;2023-06-04T11:50:36;1.10;;;1.00;;
7013;SDS011;3547;50.774;12.918;2023-06-04T11:53:02;1.00;;;0.90;;
7013;SDS011;3547;50.774;12.918;2023-06-04T11:55:28;4.18;;;1.10;;
7013;SDS011;3547;50.774;12.918;2023-06-04T11:57:56;1.52;;;1.00;;
7013;SDS011;3547;50.774;12.918;2023-06-04T12:00:22;0.63;;;0.63;;
7013;SDS011;3547;50.774;12.918;2023-06-04T12:02:50;1.42;;;1.08;;
7013;SDS011;3547;50.774;12.918;2023-06-04T12:05:20;0.90;;;0.90;;
7013;SDS011;3547;50.774;12.918;2023-06-04T12:07:50;5.63;;;1.27;;
7013;SDS011;3547;50.774;12.918;2023-06-04T12:10:20;1.77;;;1.13;;
7013;SDS011;3547;50.774;12.918;2023-06-04T12:12:55;0.88;;;0.88;;
7013;SDS011;3547;50.774;12.918;2023-06-04T12:15:21;1.20;;;1.00;;
7013;SDS011;3547;50.774;12.918;2023-06-04T12:17:51;0.82;;;0.82;;
7013;SDS011;3547;50.774;12.918;2023-06-04T12:20:19;1.92;;;1.10;;
7013;SDS011;3547;50.774;12.918;2023-06-04T12:23:00;1.10;;;0.82;;
7013;SDS011;3547;50.774;12.918;2023-06-04T12:25:27;1.08;;;1.00;;
7013;SDS011;3547;50.774;12.918;2023-06-04T12:31:16;1.58;;;0.85;;
7013;SDS011;3547;50.774;12.918;2023-06-04T12:33:43;1.30;;;1.20;;
7013;SDS011;3547;50.774;12.918;2023-06-04T12:36:10;1.65;;;1.00;;
7013;SDS011;3547;50.774;12.918;2023-06-04T12:38:36;2.72;;;0.98;;
7013;SDS011;3547;50.774;12.918;2023-06-04T12:41:21;1.13;;;1.02;;
7013;SDS011;3547;50.774;12.918;2023-06-04T12:43:47;1.08;;;0.93;;
7013;SDS011;3547;50.774;12.918;2023-06-04T12:46:13;1.08;;;0.93;;
7013;SDS011;3547;50.774;12.918;2023-06-04T12:48:40;1.20;;;1.15;;
7013;SDS011;3547;50.774;12.918;2023-06-04T12:51:10;1.05;;;0.95;;
7013;SDS011;3547;50.774;12.918;2023-06-04T12:53:40;1.08;;;0.98;;
7013;SDS011;3547;50.774;12.918;2023-06-04T12:58:43;1.58;;;0.95;;
7013;SDS011;3547;50.774;12.918;2023-06-04T13:01:09;0.80;;;0.80;;
7013;SDS011;3547;50.774;12.918;2023-06-04T13:03:39;1.20;;;1.05;;
7013;SDS011;3547;50.774;12.918;2023-06-04T13:06:06;0.90;;;0.90;;
7013;SDS011;3547;50.774;12.918;2023-06-04T13:08:33;0.88;;;0.88;;
7013;SDS011;3547;50.774;12.918;2023-06-04T13:10:59;2.20;;;1.10;;
7013;SDS011;3547;50.774;12.918;2023-06-04T13:13:26;1.00;;;0.98;;
7013;SDS011;3547;50.774;12.918;2023-06-04T13:15:53;1.98;;;1.40;;
7013;SDS011;3547;50.774;12.918;2023-06-04T13:18:19;1.42;;;1.25;;
7013;SDS011;3547;50.774;12.918;2023-06-04T13:20:46;1.23;;;1.10;;
7013;SDS011;3547;50.774;12.918;2023-06-04T13:23:12;2.22;;;1.15;;
7013;SDS011;3547;50.774;12.918;2023-06-04T13:25:39;1.10;;;1.00;;
7013;SDS011;3547;50.774;12.918;2023-06-04T13:28:06;1.40;;;1.13;;
7013;SDS011;3547;50.774;12.918;2023-06-04T13:30:36;1.80;;;1.00;;
7013;SDS011;3547;50.774;12.918;2023-06-04T13:33:03;1.08;;;1.02;;
7013;SDS011;3547;50.774;12.918;2023-06-04T13:35:30;1.00;;;1.00;;
7013;SDS011;3547;50.774;12.918;2023-06-04T13:37:57;2.35;;;1.40;;
7013;SDS011;3547;50.774;12.918;2023-06-04T13:40:23;1.98;;;1.20;;
7013;SDS011;3547;50.774;12.918;2023-06-04T13:42:49;1.30;;;1.20;;
7013;SDS011;3547;50.774;12.918;2023-06-04T13:45:16;1.52;;;1.42;;
7013;SDS011;3547;50.774;12.918;2023-06-04T13:47:42;1.45;;;1.08;;
7013;SDS011;3547;50.774;12.918;2023-06-04T13:50:09;1.27;;;1.17;;
7013;SDS011;3547;50.774;12.918;2023-06-04T13:52:35;2.38;;;1.35;;
7013;SDS011;3547;50.774;12.918;2023-06-04T13:55:02;1.55;;;1.20;;
7013;SDS011;3547;50.774;12.918;2023-06-04T13:57:28;1.02;;;0.93;;
7013;SDS011;3547;50.774;12.918;2023-06-04T13:59:54;1.48;;;1.13;;
7013;SDS011;3547;50.774;12.918;2023-06-04T14:07:32;1.20;;;1.08;;
7013;SDS011;3547;50.774;12.918;2023-06-04T14:09:59;1.60;;;1.20;;
7013;SDS011;3547;50.774;12.918;2023-06-04T14:12:26;2.42;;;1.40;;
7013;SDS011;3547;50.774;12.918;2023-06-04T14:14:52;1.63;;;1.10;;
7013;SDS011;3547;50.774;12.918;2023-06-04T14:17:26;1.20;;;1.08;;
7013;SDS011;3547;50.774;12.918;2023-06-04T14:19:52;1.50;;;1.40;;
7013;SDS011;3547;50.774;12.918;2023-06-04T14:22:18;1.35;;;1.25;;
7013;SDS011;3547;50.774;12.918;2023-06-04T14:24:45;1.23;;;1.13;;
7013;SDS011;3547;50.774;12.918;2023-06-04T14:27:11;1.42;;;1.33;;
7013;SDS011;3547;50.774;12.918;2023-06-04T14:29:37;1.33;;;1.20;;
7013;SDS011;3547;50.774;12.918;2023-06-04T14:32:04;1.42;;;1.20;;
7013;SDS011;3547;50.774;12.918;2023-06-04T14:34:30;1.20;;;1.10;;
7013;SDS011;3547;50.774;12.918;2023-06-04T14:36:59;1.38;;;1.05;;
7013;SDS011;3547;50.774;12.918;2023-06-04T14:39:26;1.83;;;1.30;;
7013;SDS011;3547;50.774;12.918;2023-06-04T14:41:53;1.92;;;1.20;;
7013;SDS011;3547;50.774;12.918;2023-06-04T14:44:19;1.30;;;1.20;;
7013;SDS011;3547;50.774;12.918;2023-06-04T14:46:46;1.35;;;1.25;;
7013;SDS011;3547;50.774;12.918;2023-06-04T14:49:14;1.25;;;1.15;;
7013;SDS011;3547;50.774;12.918;2023-06-04T14:51:40;1.05;;;1.05;;
7013;SDS011;3547;50.774;12.918;2023-06-04T14:54:06;1.90;;;1.45;;
7013;SDS011;3547;50.774;12.918;2023-06-04T14:56:32;2.35;;;1.20;;
7013;SDS011;3547;50.774;12.918;2023-06-04T14:58:58;1.30;;;1.10;;
7013;SDS011;3547;50.774;12.918;2023-06-04T15:01:26;1.27;;;1.17;;
7013;SDS011;3547;50.774;12.918;2023-06-04T15:03:52;2.72;;;1.23;;
7013;SDS011;3547;50.774;12.918;2023-06-04T15:06:18;1.30;;;1.20;;
7013;SDS011;3547;50.774;12.918;2023-06-04T15:08:45;1.45;;;1.27;;
7013;SDS011;3547;50.774;12.918;2023-06-04T15:11:11;3.72;;;1.23;;
7013;SDS011;3547;50.774;12.918;2023-06-04T15:13:37;1.90;;;1.50;;
7013;SDS011;3547;50.774;12.918;2023-06-04T15:16:03;1.25;;;1.15;;
7013;SDS011;3547;50.774;12.918;2023-06-04T15:18:29;1.10;;;1.10;;
7013;SDS011;3547;50.774;12.918;2023-06-04T15:20:55;3.78;;;1.45;;
7013;SDS011;3547;50.774;12.918;2023-06-04T15:23:24;1.20;;;1.10;;
7013;SDS011;3547;50.774;12.918;2023-06-04T15:26:17;1.35;;;1.27;;
7013;SDS011;3547;50.774;12.918;2023-06-04T15:29:19;1.58;;;1.10;;
7013;SDS011;3547;50.774;12.918;2023-06-04T15:31:45;1.30;;;1.20;;
7013;SDS011;3547;50.774;12.918;2023-06-04T15:34:12;3.10;;;1.50;;
7013;SDS011;3547;50.774;12.918;2023-06-04T15:36:38;1.20;;;1.20;;
7013;SDS011;3547;50.774;12.918;2023-06-04T15:39:04;1.65;;;1.27;;
7013;SDS011;3547;50.774;12.918;2023-06-04T15:41:30;1.15;;;1.13;;
7013;SDS011;3547;50.774;12.918;2023-06-04T15:43:57;1.23;;;1.13;;
7013;SDS011;3547;50.774;12.918;2023-06-04T15:46:23;1.38;;;1.27;;
7013;SDS011;3547;50.774;12.918;2023-06-04T15:48:51;1.33;;;1.23;;
7013;SDS011;3547;50.774;12.918;2023-06-04T15:51:17;1.70;;;1.60;;
7013;SDS011;3547;50.774;12.918;2023-06-04T15:53:43;1.30;;;1.20;;
7013;SDS011;3547;50.774;12.918;2023-06-04T15:56:10;1.25;;;1.15;;
7013;SDS011;3547;50.774;12.918;2023-06-04T15:58:38;1.45;;;1.35;;
7013;SDS011;3547;50.774;12.918;2023-06-04T16:01:05;1.30;;;1.20;;
7013;SDS011;3547;50.774;12.918;2023-06-04T16:03:31;1.23;;;1.15;;
7013;SDS011;3547;50.774;12.918;2023-06-04T16:05:58;2.35;;;1.27;;